Terminal Aerodrome Forecast
Issued by NWS

Home | Current Version | Previous Version | Text Only | Print | Product List | Glossary On
Versions: 1 2 3 4 5 6 7 8 9 10 11 12 13 14 15 16 17 18 19 20 21 22 23 24
000
FTUS43 KGRR 181504 AAC
TAFBTL
TAF AMD
KBTL 181504Z 1815/1912 04004KT 1/4SM FG OVC002
     FM181600 02006KT 1SM -RA BR OVC003
     FM181800 35012G23KT 3SM -SHRA BR OVC006
     FM182200 34016G26KT 6SM BR OVC012
     FM190000 33020G30KT P6SM OVC025
     FM190600 31012KT P6SM -SHSN OVC030=

USA.gov is the U.S. government's official web portal to all federal, state and local government web resources and services.